Sbi Athena — V7IG7 — position and weather

sailwx.info

Track history (hours):
 
Tides and Currents Weather Stations Pressure Air Temp Water Temp Dewpoint Dewpoint Depression Visibility Wind Speed Wind Dir Waves Ship Positions

Sbi Athena

Last reported at 2017-Dec-11 16:59 UTC. Time now 2017-Dec-12 16:15 UTC.
Position N 24°57' E 120°50'.

Length 200 m; draft 9.4 m.

Type: Cargo ship. MMSI: 538005937.

Date/timePositionNaut miles runAvg speedWind from/ knotsBaromVisibWave heightAir tempDewpointWater temp
2017-Dec-11 16:59N 24°57' E 120°50'4 9.5
2017-Dec-11 16:30N 24°54' E 120°47'77 6.8
2017-Dec-11 05:06N 23°51' E 119°57'1 6.5
2017-Dec-11 05:00N 23°50' E 119°57'8 7.5
2017-Dec-11 03:59N 23°42' E 119°56'4 9.1
2017-Dec-11 03:30N 23°38' E 119°56'5 9.8
2017-Dec-11 03:00N 23°33' E 119°55'510.1
2017-Dec-11 02:31N 23°28' E 119°54'5 9.1
2017-Dec-11 02:00N 23°24' E 119°52'4 7.3
2017-Dec-11 01:30N 23°21' E 119°50'110 9.9
2017-Dec-10 14:22N 22°14' E 118°16'712.4
2017-Dec-10 13:50N 22°11' E 118°09'612.7
2017-Dec-10 13:22N 22°09' E 118°03'  
Track history (hours):
 
Tides and Currents Weather Stations Pressure Air Temp Water Temp Dewpoint Dewpoint Depression Visibility Wind Speed Wind Dir Waves Ship Positions

Sbi Athena

Last reported at 2017-Dec-11 16:59 UTC. Time now 2017-Dec-12 16:15 UTC.
Position N 24°57' E 120°50'.

Length 200 m; draft 9.4 m.

Type: Cargo ship. MMSI: 538005937.

Date/timePositionNaut miles runAvg speedWind from/ knotsBaromVisibWave heightAir tempDewpointWater temp
2017-Dec-11 16:59N 24°57' E 120°50'4 9.5
2017-Dec-11 16:30N 24°54' E 120°47'77 6.8
2017-Dec-11 05:06N 23°51' E 119°57'1 6.5
2017-Dec-11 05:00N 23°50' E 119°57'8 7.5
2017-Dec-11 03:59N 23°42' E 119°56'4 9.1
2017-Dec-11 03:30N 23°38' E 119°56'5 9.8
2017-Dec-11 03:00N 23°33' E 119°55'510.1
2017-Dec-11 02:31N 23°28' E 119°54'5 9.1
2017-Dec-11 02:00N 23°24' E 119°52'4 7.3
2017-Dec-11 01:30N 23°21' E 119°50'110 9.9
2017-Dec-10 14:22N 22°14' E 118°16'712.4
2017-Dec-10 13:50N 22°11' E 118°09'612.7
2017-Dec-10 13:22N 22°09' E 118°03'  

Dump ship's entire track history